Time;durP1;ratioP1;P1;durP2;ratioP2;P2;SDS_P1;SDS_P2;PMS_P1;PMS_P2;Temp;Humidity;BMP_temperature;BMP_pressure;BME280_temperature;BME280_humidity;BME280_pressure;Samples;Min_cycle;Max_cycle;Signal;HPM_P1;HPM_P2
2021/07/03 00:01:15;;;;;;;138.67;34.93;;;;;;;;;;3565886;40;20035;-61
2021/07/03 00:03:40;;;;;;;118.50;33.50;;;;;;;;;;3566956;40;20272;-61
2021/07/03 00:06:05;;;;;;;84.23;27.00;;;;;;;;;;3567619;40;20028;-61
2021/07/03 00:08:30;;;;;;;62.60;24.67;;;;;;;;;;3567939;40;20041;-61
2021/07/03 00:10:55;;;;;;;54.33;24.17;;;;;;;;;;3565780;40;20418;-61
2021/07/03 00:13:20;;;;;;;95.67;26.27;;;;;;;;;;3565129;40;20422;-61
2021/07/03 00:15:46;;;;;;;136.77;29.87;;;;;;;;;;3563603;40;20040;-61
2021/07/03 00:18:13;;;;;;;145.77;31.07;;;;;;;;;;3566014;40;20026;-65
2021/07/03 00:20:38;;;;;;;59.83;24.52;;;;;;;;;;3560178;40;20287;-66
2021/07/03 00:23:04;;;;;;;80.03;24.33;;;;;;;;;;3559635;40;20126;-66
2021/07/03 00:25:29;;;;;;;44.28;22.55;;;;;;;;;;3560270;40;20632;-66
2021/07/03 00:27:54;;;;;;;52.07;24.00;;;;;;;;;;3561634;40;20025;-65
2021/07/03 00:30:20;;;;;;;82.03;25.70;;;;;;;;;;3562256;40;20040;-66
2021/07/03 00:32:45;;;;;;;88.40;26.60;;;;;;;;;;3564579;40;20034;-66
2021/07/03 00:35:10;;;;;;;197.43;62.33;;;;;;;;;;3565336;40;20403;-66
2021/07/03 00:37:35;;;;;;;101.27;27.30;;;;;;;;;;3567196;40;20286;-66
2021/07/03 00:40:01;;;;;;;189.00;97.60;;;;;;;;;;3567553;40;20395;-66
2021/07/03 00:42:26;;;;;;;223.82;109.85;;;;;;;;;;3567400;40;20033;-66
2021/07/03 00:44:51;;;;;;;232.33;60.40;;;;;;;;;;3565701;40;20037;-66
2021/07/03 00:47:16;;;;;;;235.90;114.83;;;;;;;;;;3564519;40;20040;-65
2021/07/03 00:49:43;;;;;;;261.55;74.18;;;;;;;;;;3566280;40;20029;-66
2021/07/03 00:52:09;;;;;;;195.23;78.07;;;;;;;;;;3561367;40;20440;-67
2021/07/03 00:54:34;;;;;;;209.23;84.53;;;;;;;;;;3559706;40;20778;-67
2021/07/03 00:57:03;;;;;;;162.27;32.10;;;;;;;;;;3565401;40;20030;-67
2021/07/03 00:59:30;;;;;;;90.30;26.35;;;;;;;;;;3560407;40;20045;-67
2021/07/03 01:01:55;;;;;;;104.00;28.33;;;;;;;;;;3561686;40;20056;-67
2021/07/03 01:04:20;;;;;;;216.15;68.30;;;;;;;;;;3562628;40;20068;-67
2021/07/03 01:06:46;;;;;;;210.45;71.68;;;;;;;;;;3567055;40;20045;-67
2021/07/03 01:09:11;;;;;;;234.18;81.97;;;;;;;;;;3566984;40;20272;-67
2021/07/03 01:11:36;;;;;;;172.02;33.30;;;;;;;;;;3567277;40;20049;-67
2021/07/03 01:14:02;;;;;;;172.55;33.00;;;;;;;;;;3568062;40;20061;-67
2021/07/03 01:16:29;;;;;;;182.02;35.58;;;;;;;;;;3566700;40;20049;-66
2021/07/03 01:18:54;;;;;;;158.40;32.08;;;;;;;;;;3564886;40;20083;-67
2021/07/03 01:21:21;;;;;;;195.07;35.70;;;;;;;;;;3566222;40;20053;-67
2021/07/03 01:23:46;;;;;;;199.35;37.08;;;;;;;;;;3561848;40;20213;-67
2021/07/03 01:26:12;;;;;;;199.90;37.80;;;;;;;;;;3565735;40;20042;-67
2021/07/03 01:28:39;;;;;;;201.70;38.30;;;;;;;;;;3567512;40;20029;-66
2021/07/03 01:31:05;;;;;;;196.85;37.67;;;;;;;;;;3567171;40;20051;-67
2021/07/03 01:33:32;;;;;;;216.57;59.67;;;;;;;;;;3565318;40;20746;-67
2021/07/03 01:35:58;;;;;;;282.80;138.02;;;;;;;;;;3566106;40;20036;-67
2021/07/03 01:38:23;;;;;;;283.08;121.60;;;;;;;;;;3563421;40;20033;-67
2021/07/03 01:40:51;;;;;;;223.55;70.25;;;;;;;;;;3565436;40;20048;-66
2021/07/03 01:43:21;;;;;;;195.43;51.45;;;;;;;;;;3566301;40;20029;-67
2021/07/03 01:45:46;;;;;;;178.48;36.60;;;;;;;;;;3566275;40;20063;-67
2021/07/03 01:48:12;;;;;;;172.18;34.63;;;;;;;;;;3565987;40;20660;-67
2021/07/03 01:50:38;;;;;;;214.52;39.85;;;;;;;;;;3564557;40;20033;-67
2021/07/03 01:53:04;;;;;;;204.55;50.38;;;;;;;;;;3565290;40;20472;-67
2021/07/03 01:55:31;;;;;;;223.93;88.32;;;;;;;;;;3566393;40;20040;-67
2021/07/03 01:57:57;;;;;;;216.17;73.57;;;;;;;;;;3562587;40;20029;-67
2021/07/03 02:00:24;;;;;;;194.18;56.30;;;;;;;;;;3558584;40;20954;-67
2021/07/03 02:02:59;;;;;;;203.93;44.60;;;;;;;;;;3565417;40;20145;-67
2021/07/03 02:05:38;;;;;;;226.05;52.97;;;;;;;;;;3565348;40;20043;-67
2021/07/03 02:08:04;;;;;;;189.25;38.67;;;;;;;;;;3565675;40;20030;-66
2021/07/03 02:10:30;;;;;;;194.57;36.90;;;;;;;;;;3562970;40;20053;-66
2021/07/03 02:12:56;;;;;;;196.80;38.47;;;;;;;;;;3566045;40;20235;-67
2021/07/03 02:15:30;;;;;;;208.82;50.00;;;;;;;;;;3568730;40;20400;-67
2021/07/03 02:18:05;;;;;;;204.65;48.50;;;;;;;;;;3569625;40;20040;-67
2021/07/03 02:20:32;;;;;;;229.20;68.60;;;;;;;;;;3566380;40;20057;-67
2021/07/03 02:23:08;;;;;;;237.50;96.05;;;;;;;;;;3565995;40;20038;-67
2021/07/03 02:25:34;;;;;;;228.15;95.30;;;;;;;;;;3566707;40;20348;-67
2021/07/03 02:28:05;;;;;;;194.57;43.95;;;;;;;;;;3567642;40;20037;-67
2021/07/03 02:30:32;;;;;;;218.27;64.57;;;;;;;;;;3567442;40;20149;-67
2021/07/03 02:32:57;;;;;;;228.98;88.15;;;;;;;;;;3567487;40;20095;-67
2021/07/03 02:35:24;;;;;;;238.20;89.75;;;;;;;;;;3567943;40;20021;-67
2021/07/03 02:37:49;;;;;;;254.52;114.05;;;;;;;;;;3567874;40;20029;-67
2021/07/03 02:40:15;;;;;;;282.25;126.95;;;;;;;;;;3569389;40;20032;-67
2021/07/03 02:42:40;;;;;;;258.73;104.05;;;;;;;;;;3569594;40;20044;-67
2021/07/03 02:45:06;;;;;;;262.52;88.97;;;;;;;;;;3567452;40;20041;-67
2021/07/03 02:47:31;;;;;;;224.23;84.63;;;;;;;;;;3565690;40;20108;-68
2021/07/03 02:49:57;;;;;;;264.70;107.70;;;;;;;;;;3566184;40;20084;-67
2021/07/03 02:52:22;;;;;;;261.08;103.90;;;;;;;;;;3559241;40;20089;-67
2021/07/03 02:54:49;;;;;;;255.37;118.93;;;;;;;;;;3562896;40;20727;-67
2021/07/03 02:57:14;;;;;;;272.85;116.80;;;;;;;;;;3566200;40;20821;-67
2021/07/03 02:59:41;;;;;;;336.60;154.88;;;;;;;;;;3568299;40;20033;-66
2021/07/03 03:02:06;;;;;;;327.45;152.40;;;;;;;;;;3566884;40;20118;-67
2021/07/03 03:04:34;;;;;;;312.35;186.55;;;;;;;;;;3566187;40;20033;-67
2021/07/03 03:07:00;;;;;;;293.70;158.55;;;;;;;;;;3567755;40;20040;-67
2021/07/03 03:09:28;;;;;;;260.88;132.93;;;;;;;;;;3567815;40;20065;-67
2021/07/03 03:11:55;;;;;;;248.95;99.28;;;;;;;;;;3567476;40;20040;-67
2021/07/03 03:14:20;;;;;;;197.75;45.10;;;;;;;;;;3567273;40;20041;-68
2021/07/03 03:16:46;;;;;;;274.98;114.70;;;;;;;;;;3560215;40;20132;-67
2021/07/03 03:19:11;;;;;;;197.60;89.25;;;;;;;;;;3565347;40;20195;-67
2021/07/03 03:21:40;;;;;;;133.23;34.95;;;;;;;;;;3567114;40;20132;-67
2021/07/03 03:24:05;;;;;;;219.93;40.35;;;;;;;;;;3568519;40;20398;-67
2021/07/03 03:26:32;;;;;;;180.52;43.05;;;;;;;;;;3568658;40;20095;-67
2021/07/03 03:28:58;;;;;;;194.23;43.03;;;;;;;;;;3567978;40;20442;-67
2021/07/03 03:31:24;;;;;;;207.18;46.15;;;;;;;;;;3567266;40;20405;-67
2021/07/03 03:33:52;;;;;;;161.07;39.83;;;;;;;;;;3567414;40;20039;-67
2021/07/03 03:36:18;;;;;;;195.73;46.87;;;;;;;;;;3565451;40;20024;-67
2021/07/03 03:38:46;;;;;;;236.95;49.55;;;;;;;;;;3566575;40;20295;-67
2021/07/03 03:41:11;;;;;;;208.23;45.90;;;;;;;;;;3559902;40;20069;-67
2021/07/03 03:43:37;;;;;;;211.70;54.92;;;;;;;;;;3559458;40;20643;-67
2021/07/03 03:46:03;;;;;;;232.23;58.80;;;;;;;;;;3562950;40;20041;-67
2021/07/03 03:48:29;;;;;;;222.25;60.83;;;;;;;;;;3569048;40;20051;-67
2021/07/03 03:50:57;;;;;;;202.10;51.53;;;;;;;;;;3566754;40;20064;-67
2021/07/03 03:53:22;;;;;;;225.87;44.77;;;;;;;;;;3565656;40;20739;-67
2021/07/03 03:55:48;;;;;;;265.55;59.88;;;;;;;;;;3568329;40;20044;-67
2021/07/03 03:58:16;;;;;;;213.55;49.65;;;;;;;;;;3566705;40;20039;-67
2021/07/03 04:00:44;;;;;;;209.05;50.22;;;;;;;;;;3567209;40;20044;-67
2021/07/03 04:03:10;;;;;;;201.95;44.30;;;;;;;;;;3566517;40;20041;-67
2021/07/03 04:05:42;;;;;;;207.20;49.75;;;;;;;;;;3565787;40;20034;-67
2021/07/03 04:08:08;;;;;;;233.13;49.65;;;;;;;;;;3566890;40;20038;-67
2021/07/03 04:10:35;;;;;;;234.70;47.78;;;;;;;;;;3567545;40;20049;-67
2021/07/03 04:13:01;;;;;;;208.27;43.33;;;;;;;;;;3568065;40;20029;-67
2021/07/03 04:15:26;;;;;;;204.77;43.07;;;;;;;;;;3568525;40;20259;-67
2021/07/03 04:17:51;;;;;;;204.10;42.97;;;;;;;;;;3567510;40;20025;-67
2021/07/03 04:20:16;;;;;;;201.57;41.17;;;;;;;;;;3567598;40;20045;-67
2021/07/03 04:22:42;;;;;;;204.15;41.47;;;;;;;;;;3565697;40;20349;-67
2021/07/03 04:25:07;;;;;;;228.57;46.43;;;;;;;;;;3565113;40;20040;-67
2021/07/03 04:27:32;;;;;;;210.55;48.33;;;;;;;;;;3567824;40;20522;-67
2021/07/03 04:29:58;;;;;;;216.27;47.63;;;;;;;;;;3567362;40;20044;-67
2021/07/03 04:32:23;;;;;;;208.27;48.10;;;;;;;;;;3569403;40;20051;-67
2021/07/03 04:34:48;;;;;;;210.40;51.57;;;;;;;;;;3565363;40;20040;-67
2021/07/03 04:37:13;;;;;;;238.73;55.33;;;;;;;;;;3566804;40;20252;-67
2021/07/03 04:39:38;;;;;;;271.80;55.00;;;;;;;;;;3565446;40;20333;-67
2021/07/03 04:42:04;;;;;;;203.73;43.03;;;;;;;;;;3567219;40;20060;-66
2021/07/03 04:44:29;;;;;;;197.73;44.73;;;;;;;;;;3567387;40;20295;-67
2021/07/03 04:46:54;;;;;;;187.87;43.90;;;;;;;;;;3564853;40;20034;-67
2021/07/03 04:49:19;;;;;;;208.82;42.10;;;;;;;;;;3560002;40;20268;-67
2021/07/03 04:51:46;;;;;;;190.25;39.72;;;;;;;;;;3566051;40;20017;-66
2021/07/03 04:54:12;;;;;;;181.30;39.43;;;;;;;;;;3565940;40;20036;-67
2021/07/03 04:56:37;;;;;;;189.27;40.47;;;;;;;;;;3565282;40;20026;-67
2021/07/03 04:59:02;;;;;;;200.70;41.23;;;;;;;;;;3564255;40;20069;-67
2021/07/03 05:01:27;;;;;;;229.73;43.63;;;;;;;;;;3562662;40;20260;-67
2021/07/03 05:03:53;;;;;;;163.77;35.13;;;;;;;;;;3558442;40;20156;-67
2021/07/03 05:06:18;;;;;;;155.43;35.57;;;;;;;;;;3559210;40;20045;-67
2021/07/03 05:08:44;;;;;;;151.10;35.42;;;;;;;;;;3568211;40;20048;-67
2021/07/03 05:11:10;;;;;;;137.83;34.73;;;;;;;;;;3557374;40;20108;-66
2021/07/03 05:13:35;;;;;;;189.33;39.10;;;;;;;;;;3564385;40;20053;-67
2021/07/03 05:16:00;;;;;;;168.02;36.83;;;;;;;;;;3564370;40;20053;-67
2021/07/03 05:18:25;;;;;;;140.40;34.63;;;;;;;;;;3560478;40;20820;-67
2021/07/03 05:20:51;;;;;;;150.87;35.47;;;;;;;;;;3567911;40;20037;-66
2021/07/03 05:23:16;;;;;;;153.47;34.50;;;;;;;;;;3567726;40;20038;-67
2021/07/03 05:25:42;;;;;;;184.80;37.90;;;;;;;;;;3565900;40;20312;-67
2021/07/03 05:28:07;;;;;;;157.00;34.10;;;;;;;;;;3564652;40;20029;-67
2021/07/03 05:30:32;;;;;;;168.57;35.43;;;;;;;;;;3565906;40;20311;-67
2021/07/03 05:32:58;;;;;;;132.45;31.63;;;;;;;;;;3566979;40;20283;-67
2021/07/03 05:35:23;;;;;;;158.33;33.83;;;;;;;;;;3567856;40;20059;-67
2021/07/03 05:37:48;;;;;;;182.17;37.20;;;;;;;;;;3564602;40;20837;-67
2021/07/03 05:40:15;;;;;;;151.95;34.88;;;;;;;;;;3561546;40;20328;-67
2021/07/03 05:42:40;;;;;;;156.35;34.75;;;;;;;;;;3566918;40;20040;-67
2021/07/03 05:45:06;;;;;;;154.33;33.93;;;;;;;;;;3565769;40;20052;-67
2021/07/03 05:47:31;;;;;;;157.90;35.07;;;;;;;;;;3564730;40;20026;-67
2021/07/03 05:49:56;;;;;;;152.50;33.72;;;;;;;;;;3561767;40;20346;-67
2021/07/03 05:52:21;;;;;;;141.03;31.13;;;;;;;;;;3563846;40;20029;-68
2021/07/03 05:54:47;;;;;;;157.23;33.60;;;;;;;;;;3569034;40;20081;-67
2021/07/03 05:57:12;;;;;;;172.63;34.67;;;;;;;;;;3562017;40;20129;-66
2021/07/03 05:59:40;;;;;;;210.77;39.33;;;;;;;;;;3569442;40;20032;-67
2021/07/03 06:02:05;;;;;;;178.77;36.08;;;;;;;;;;3564058;40;20026;-67
2021/07/03 06:04:30;;;;;;;147.70;32.90;;;;;;;;;;3562583;40;20043;-67
2021/07/03 06:06:55;;;;;;;154.30;34.77;;;;;;;;;;3564118;40;20659;-67
2021/07/03 06:09:21;;;;;;;172.23;35.87;;;;;;;;;;3568494;40;20628;-66
2021/07/03 06:11:48;;;;;;;151.53;34.47;;;;;;;;;;3566149;40;20350;-67
2021/07/03 06:14:13;;;;;;;197.57;38.08;;;;;;;;;;3562038;40;20237;-67
2021/07/03 06:16:38;;;;;;;159.97;34.00;;;;;;;;;;3567424;40;20029;-67
2021/07/03 06:19:03;;;;;;;161.33;35.47;;;;;;;;;;3567177;40;20450;-67
2021/07/03 06:21:29;;;;;;;151.50;34.42;;;;;;;;;;3563588;40;20327;-67
2021/07/03 06:23:54;;;;;;;157.93;34.87;;;;;;;;;;3562820;40;20042;-67
2021/07/03 06:26:19;;;;;;;151.15;33.60;;;;;;;;;;3564124;40;20119;-67
2021/07/03 06:28:44;;;;;;;147.57;32.03;;;;;;;;;;3567718;40;20017;-67
2021/07/03 06:31:09;;;;;;;186.53;35.60;;;;;;;;;;3568089;40;20037;-67
2021/07/03 06:33:35;;;;;;;170.77;33.70;;;;;;;;;;3567962;40;20551;-67
2021/07/03 06:36:00;;;;;;;159.53;32.50;;;;;;;;;;3565477;40;20030;-67
2021/07/03 06:38:25;;;;;;;177.37;34.00;;;;;;;;;;3565299;40;20036;-67
2021/07/03 06:40:50;;;;;;;160.20;32.23;;;;;;;;;;3564658;40;20388;-68
2021/07/03 06:43:16;;;;;;;196.32;33.47;;;;;;;;;;3567989;40;20048;-67
2021/07/03 06:45:41;;;;;;;153.80;30.03;;;;;;;;;;3569283;40;20035;-67
2021/07/03 06:48:06;;;;;;;171.50;33.70;;;;;;;;;;3568275;40;20423;-67
2021/07/03 06:50:31;;;;;;;170.90;33.35;;;;;;;;;;3566672;40;20309;-67
2021/07/03 06:52:57;;;;;;;168.83;33.20;;;;;;;;;;3569956;40;20130;-66
2021/07/03 06:55:22;;;;;;;196.20;37.13;;;;;;;;;;3567493;40;20268;-67
2021/07/03 06:57:47;;;;;;;155.82;32.63;;;;;;;;;;3568643;40;20033;-67
2021/07/03 07:00:13;;;;;;;173.50;34.33;;;;;;;;;;3568500;40;20021;-67
2021/07/03 07:02:38;;;;;;;194.37;36.67;;;;;;;;;;3570281;40;20021;-62
2021/07/03 07:05:03;;;;;;;136.07;29.97;;;;;;;;;;3568821;40;20861;-62
2021/07/03 07:07:28;;;;;;;146.30;29.60;;;;;;;;;;3565479;40;20284;-62
2021/07/03 07:09:53;;;;;;;117.20;29.83;;;;;;;;;;3568033;40;20203;-62
2021/07/03 07:12:19;;;;;;;124.23;27.80;;;;;;;;;;3571297;40;20070;-62
2021/07/03 07:14:44;;;;;;;132.70;28.23;;;;;;;;;;3567375;40;20037;-62
2021/07/03 07:17:09;;;;;;;142.80;29.88;;;;;;;;;;3561791;40;20040;-62
2021/07/03 07:19:35;;;;;;;162.23;31.48;;;;;;;;;;3574725;40;20741;-63
2021/07/03 07:22:00;;;;;;;154.33;31.53;;;;;;;;;;3566493;40;20435;-62
2021/07/03 07:24:25;;;;;;;179.40;32.83;;;;;;;;;;3565665;40;20131;-65
2021/07/03 07:26:50;;;;;;;161.38;31.95;;;;;;;;;;3568137;40;20033;-65
2021/07/03 07:29:16;;;;;;;140.27;29.83;;;;;;;;;;3569090;40;20330;-62
2021/07/03 07:31:41;;;;;;;155.73;31.37;;;;;;;;;;3568024;40;20742;-63
2021/07/03 07:34:06;;;;;;;73.35;26.50;;;;;;;;;;3567185;40;20279;-68
2021/07/03 07:36:31;;;;;;;154.65;30.38;;;;;;;;;;3563821;40;20032;-68
2021/07/03 07:38:57;;;;;;;134.43;29.30;;;;;;;;;;3565881;40;20029;-67
2021/07/03 07:41:22;;;;;;;145.67;30.57;;;;;;;;;;3564456;40;20034;-68
2021/07/03 07:43:47;;;;;;;180.67;32.07;;;;;;;;;;3562129;40;20304;-67
2021/07/03 07:46:12;;;;;;;171.60;30.83;;;;;;;;;;3561886;40;20108;-67
2021/07/03 07:48:38;;;;;;;162.97;29.20;;;;;;;;;;3560523;40;20034;-68
2021/07/03 07:51:03;;;;;;;178.00;33.55;;;;;;;;;;3562678;40;20264;-68
2021/07/03 07:53:28;;;;;;;158.83;30.43;;;;;;;;;;3560535;40;20501;-68
2021/07/03 07:55:53;;;;;;;156.37;30.73;;;;;;;;;;3565511;40;20018;-68
2021/07/03 07:58:19;;;;;;;139.67;27.67;;;;;;;;;;3563921;40;20311;-68
2021/07/03 08:00:44;;;;;;;150.43;28.47;;;;;;;;;;3568427;40;20260;-68
2021/07/03 08:03:09;;;;;;;157.87;28.27;;;;;;;;;;3566334;40;20037;-68
2021/07/03 08:05:35;;;;;;;155.47;27.80;;;;;;;;;;3567738;40;20484;-68
2021/07/03 08:08:00;;;;;;;142.48;26.50;;;;;;;;;;3567888;40;20142;-68
2021/07/03 08:10:27;;;;;;;129.87;24.93;;;;;;;;;;3565213;40;20048;-71
2021/07/03 08:12:52;;;;;;;136.85;25.35;;;;;;;;;;3562013;40;20104;-69
2021/07/03 08:15:17;;;;;;;134.87;24.67;;;;;;;;;;3566783;40;20134;-69
2021/07/03 08:17:43;;;;;;;136.40;26.75;;;;;;;;;;3565386;40;20652;-69
2021/07/03 08:20:09;;;;;;;164.45;28.60;;;;;;;;;;3566629;40;20022;-69
2021/07/03 08:22:34;;;;;;;200.40;42.20;;;;;;;;;;3569555;40;20815;-68
2021/07/03 08:24:59;;;;;;;335.77;186.90;;;;;;;;;;3566112;40;20030;-69
2021/07/03 08:27:24;;;;;;;467.63;398.83;;;;;;;;;;3562421;40;20609;-69
2021/07/03 08:29:49;;;;;;;796.73;712.60;;;;;;;;;;3562453;40;20038;-69
2021/07/03 08:32:15;;;;;;;847.77;763.33;;;;;;;;;;3564185;40;20062;-68
2021/07/03 08:34:40;;;;;;;866.27;779.20;;;;;;;;;;3567847;40;20036;-69
2021/07/03 08:37:05;;;;;;;874.03;787.03;;;;;;;;;;3568135;40;20057;-68
2021/07/03 08:39:30;;;;;;;659.77;590.73;;;;;;;;;;3569280;40;20256;-67
2021/07/03 08:41:55;;;;;;;442.53;345.53;;;;;;;;;;3559636;40;20033;-67
2021/07/03 08:44:21;;;;;;;449.60;390.03;;;;;;;;;;3560964;40;20080;-67
2021/07/03 08:46:46;;;;;;;264.13;125.57;;;;;;;;;;3566737;40;20084;-71
2021/07/03 08:49:11;;;;;;;192.37;30.93;;;;;;;;;;3566443;40;20096;-69
2021/07/03 08:51:36;;;;;;;519.73;455.70;;;;;;;;;;3566168;40;20082;-69
2021/07/03 08:54:04;;;;;;;123.37;20.80;;;;;;;;;;3567007;40;20143;-69
2021/07/03 08:56:29;;;;;;;504.10;449.17;;;;;;;;;;3562821;40;20504;-69
2021/07/03 08:58:54;;;;;;;341.33;240.03;;;;;;;;;;3564468;40;20028;-70
2021/07/03 09:01:19;;;;;;;129.63;19.23;;;;;;;;;;3566672;40;20049;-70
2021/07/03 09:03:44;;;;;;;742.23;669.00;;;;;;;;;;3566962;40;20037;-70
2021/07/03 09:06:10;;;;;;;602.42;540.75;;;;;;;;;;3566591;40;20025;-70
2021/07/03 09:08:35;;;;;;;928.83;841.93;;;;;;;;;;3565166;40;20029;-70
